createdAt,value
2022-09-12T00:01:19.454Z,16.50
2022-09-12T00:03:47.504Z,16.58
2022-09-12T00:06:25.264Z,15.85
2022-09-12T00:08:56.009Z,15.85
2022-09-12T00:11:27.212Z,15.65
2022-09-12T00:14:01.940Z,15.65
2022-09-12T00:16:34.625Z,16.88
2022-09-12T00:19:03.986Z,15.45
2022-09-12T00:21:34.703Z,16.52
2022-09-12T00:24:02.687Z,15.48
2022-09-12T00:26:31.779Z,15.82
2022-09-12T00:28:59.210Z,16.08
2022-09-12T00:31:27.620Z,15.95
2022-09-12T00:33:57.758Z,15.18
2022-09-12T00:36:26.244Z,16.50
2022-09-12T00:38:54.823Z,16.55
2022-09-12T00:41:25.236Z,16.17
2022-09-12T00:44:17.725Z,17.55
2022-09-12T00:46:48.766Z,18.55
2022-09-12T00:49:29.155Z,19.30
2022-09-12T00:52:06.622Z,16.35
2022-09-12T00:54:51.860Z,17.88
2022-09-12T00:57:23.413Z,17.75
2022-09-12T00:59:59.654Z,18.67
2022-09-12T01:02:28.042Z,18.23
2022-09-12T01:04:56.086Z,18.45
2022-09-12T01:07:25.687Z,18.65
2022-09-12T01:09:53.468Z,17.88
2022-09-12T01:12:22.252Z,16.60
2022-09-12T01:14:49.677Z,17.50
2022-09-12T01:17:17.162Z,16.30
2022-09-12T01:20:15.603Z,17.15
2022-09-12T01:23:09.268Z,17.10
2022-09-12T01:26:19.614Z,16.75
2022-09-12T01:28:46.922Z,17.20
2022-09-12T01:31:21.762Z,17.23
2022-09-12T01:34:13.281Z,17.98
2022-09-12T01:36:50.920Z,17.10
2022-09-12T01:39:31.210Z,17.40
2022-09-12T01:42:04.720Z,17.98
2022-09-12T01:44:49.943Z,16.83
2022-09-12T01:47:36.045Z,17.10
2022-09-12T01:50:19.545Z,18.13
2022-09-12T01:53:05.153Z,18.92
2022-09-12T01:55:38.201Z,18.63
2022-09-12T01:58:30.667Z,19.05
2022-09-12T02:01:11.140Z,19.55
2022-09-12T02:03:46.563Z,18.42
2022-09-12T02:06:35.232Z,18.83
2022-09-12T02:09:12.811Z,18.40
2022-09-12T02:11:43.638Z,17.33
2022-09-12T02:14:29.056Z,18.70
2022-09-12T02:17:02.527Z,19.08
2022-09-12T02:19:52.168Z,18.15
2022-09-12T02:22:22.740Z,17.23
2022-09-12T02:24:54.704Z,16.88
2022-09-12T02:27:27.709Z,17.23
2022-09-12T02:29:55.645Z,18.75
2022-09-12T02:32:50.195Z,18.58
2022-09-12T02:35:31.579Z,18.85
2022-09-12T02:38:05.613Z,18.38
2022-09-12T02:40:33.949Z,17.23
2022-09-12T02:43:03.120Z,18.80
2022-09-12T02:45:34.253Z,18.35
2022-09-12T02:48:19.366Z,18.50
2022-09-12T02:50:47.245Z,18.58
2022-09-12T02:53:15.372Z,17.55
2022-09-12T02:55:43.852Z,17.60
2022-09-12T02:58:16.023Z,19.08
2022-09-12T03:01:14.587Z,17.77
2022-09-12T03:04:09.940Z,18.73
2022-09-12T03:09:39.810Z,17.02
2022-09-12T03:12:26.084Z,17.25
2022-09-12T03:15:01.690Z,17.23
2022-09-12T03:17:35.431Z,17.33
2022-09-12T03:20:25.213Z,18.27
2022-09-12T03:23:06.681Z,18.48
2022-09-12T03:25:46.076Z,17.73
2022-09-12T03:28:19.017Z,17.77
2022-09-12T03:30:48.571Z,19.15
2022-09-12T03:33:24.682Z,18.90
2022-09-12T03:35:53.100Z,17.83
2022-09-12T03:38:21.823Z,18.38
2022-09-12T03:40:54.050Z,18.63
2022-09-12T03:43:22.169Z,16.88
2022-09-12T03:45:53.419Z,18.00
2022-09-12T03:48:21.305Z,18.85
2022-09-12T03:50:48.630Z,17.92
2022-09-12T03:53:17.410Z,17.50
2022-09-12T03:55:45.193Z,18.15
2022-09-12T03:58:12.629Z,18.00
2022-09-12T04:00:40.961Z,18.27
2022-09-12T04:03:09.154Z,19.33
2022-09-12T04:05:36.660Z,17.98
2022-09-12T04:08:04.073Z,18.42
2022-09-12T04:10:32.239Z,17.52
2022-09-12T04:12:59.739Z,18.00
2022-09-12T04:15:29.375Z,18.02
2022-09-12T04:17:56.791Z,17.75
2022-09-12T04:20:24.615Z,18.05
2022-09-12T04:22:52.160Z,17.15
2022-09-12T04:25:19.558Z,17.88
2022-09-12T04:27:50.778Z,17.38
2022-09-12T04:30:18.325Z,17.48
2022-09-12T04:32:45.868Z,17.67
2022-09-12T04:35:14.054Z,18.65
2022-09-12T04:37:41.532Z,17.70
2022-09-12T04:40:09.443Z,18.10
2022-09-12T04:42:38.377Z,18.42
2022-09-12T04:45:06.469Z,18.50
2022-09-12T04:47:44.487Z,17.83
2022-09-12T04:50:11.966Z,17.38
2022-09-12T04:52:39.603Z,16.85
2022-09-12T04:55:11.049Z,17.15
2022-09-12T04:57:38.481Z,18.15
2022-09-12T05:00:07.422Z,17.30
2022-09-12T05:02:35.090Z,17.77
2022-09-12T05:05:07.865Z,16.90
2022-09-12T05:07:35.809Z,17.45
2022-09-12T05:10:07.009Z,18.02
2022-09-12T05:12:34.516Z,17.00
2022-09-12T05:15:02.155Z,16.75
2022-09-12T05:17:30.151Z,17.27
2022-09-12T05:19:57.749Z,18.08
2022-09-12T05:22:25.229Z,16.60
2022-09-12T05:24:53.976Z,18.52
2022-09-12T05:27:21.555Z,16.95
2022-09-12T05:29:48.948Z,16.90
2022-09-12T05:32:16.317Z,16.63
2022-09-12T05:34:43.820Z,16.77
2022-09-12T05:37:12.407Z,17.13
2022-09-12T05:39:40.107Z,17.60
2022-09-12T05:42:07.624Z,16.95
2022-09-12T05:44:35.046Z,17.25
2022-09-12T05:47:02.431Z,17.13
2022-09-12T05:49:30.179Z,16.50
2022-09-12T05:51:57.691Z,16.50
2022-09-12T05:54:28.309Z,16.77
2022-09-12T05:57:01.774Z,18.35
2022-09-12T05:59:29.403Z,17.52
2022-09-12T06:01:56.905Z,17.70
2022-09-12T06:04:25.445Z,17.50
2022-09-12T06:06:53.005Z,16.83
2022-09-12T06:09:20.671Z,16.50
2022-09-12T06:11:48.226Z,16.63
2022-09-12T06:14:19.520Z,18.00
2022-09-12T06:16:47.590Z,17.10
2022-09-12T06:19:19.860Z,17.48
2022-09-12T06:21:49.718Z,17.73
2022-09-12T06:24:18.269Z,16.95
2022-09-12T06:26:46.347Z,17.30
2022-09-12T06:29:14.491Z,16.80
2022-09-12T06:31:44.518Z,18.10
2022-09-12T06:34:14.755Z,18.27
2022-09-12T06:36:45.171Z,17.20
2022-09-12T06:39:48.144Z,18.20
2022-09-12T06:42:15.642Z,17.85
2022-09-12T06:45:02.998Z,18.20
2022-09-12T06:47:30.302Z,17.20
2022-09-12T06:49:57.792Z,17.00
2022-09-12T06:52:29.176Z,19.65
2022-09-12T06:54:56.731Z,18.67
2022-09-12T06:57:28.120Z,20.05
2022-09-12T07:00:06.252Z,18.58
2022-09-12T07:02:33.730Z,18.75
2022-09-12T07:05:01.243Z,19.75
2022-09-12T07:07:28.693Z,19.10
2022-09-12T07:09:57.701Z,19.42
2022-09-12T07:12:25.275Z,18.50
2022-09-12T07:14:52.706Z,20.60
2022-09-12T07:17:20.446Z,19.35
2022-09-12T07:19:47.833Z,18.52
2022-09-12T07:22:15.270Z,19.65
2022-09-12T07:24:42.729Z,20.00
2022-09-12T07:27:10.097Z,19.17
2022-09-12T07:29:38.157Z,17.90
2022-09-12T07:32:06.689Z,18.25
2022-09-12T07:34:35.174Z,17.95
2022-09-12T07:37:02.797Z,18.15
2022-09-12T07:39:30.361Z,18.77
2022-09-12T07:42:00.710Z,17.90
2022-09-12T07:44:30.703Z,17.52
2022-09-12T07:46:58.198Z,16.75
2022-09-12T07:49:25.647Z,17.48
2022-09-12T07:51:53.870Z,16.95
2022-09-12T07:54:22.725Z,17.45
2022-09-12T07:56:50.100Z,17.58
2022-09-12T07:59:35.291Z,16.70
2022-09-12T08:02:05.422Z,16.55
2022-09-12T08:04:34.220Z,16.13
2022-09-12T08:07:01.787Z,14.98
2022-09-12T08:09:29.227Z,16.25
2022-09-12T08:11:56.629Z,16.90
2022-09-12T08:14:24.371Z,15.20
2022-09-12T08:16:52.136Z,15.10
2022-09-12T08:19:19.826Z,14.32
2022-09-12T08:21:49.614Z,14.88
2022-09-12T08:24:17.273Z,14.55
2022-09-12T08:26:44.872Z,14.93
2022-09-12T08:29:16.883Z,14.18
2022-09-12T08:31:44.441Z,14.20
2022-09-12T08:34:12.021Z,14.50
2022-09-12T08:36:39.568Z,13.68
2022-09-12T08:39:07.963Z,14.02
2022-09-12T08:41:41.188Z,13.55
2022-09-12T08:44:09.356Z,14.73
2022-09-12T08:47:01.531Z,13.45
2022-09-12T08:49:44.092Z,13.70
2022-09-12T08:52:22.388Z,13.82
2022-09-12T08:54:52.174Z,13.98
2022-09-12T08:57:20.105Z,13.52
2022-09-12T08:59:48.414Z,13.55
2022-09-12T09:02:39.171Z,14.57
2022-09-12T09:05:26.774Z,13.65
2022-09-12T09:08:11.248Z,13.38
2022-09-12T09:11:08.813Z,13.20
2022-09-12T09:14:05.362Z,13.70
2022-09-12T09:16:39.844Z,12.75
2022-09-12T09:19:37.523Z,12.75
2022-09-12T09:22:11.965Z,13.32
2022-09-12T09:24:46.008Z,12.02
2022-09-12T09:27:40.982Z,11.55
2022-09-12T09:30:19.038Z,11.50
2022-09-12T09:32:54.179Z,11.07
2022-09-12T09:35:38.972Z,11.05
2022-09-12T09:38:15.754Z,10.35
2022-09-12T09:40:52.926Z,9.75
2022-09-12T09:43:27.525Z,10.60
2022-09-12T09:45:56.552Z,9.95
2022-09-12T09:48:33.819Z,8.55
2022-09-12T09:51:05.127Z,8.48
2022-09-12T09:53:48.646Z,8.45
2022-09-12T09:56:27.631Z,8.00
2022-09-12T09:58:55.468Z,7.93
2022-09-12T10:01:23.613Z,8.63
2022-09-12T10:03:55.501Z,8.70
2022-09-12T10:06:46.050Z,7.88
2022-09-12T10:10:03.964Z,8.13
2022-09-12T10:12:31.633Z,7.35
2022-09-12T10:15:02.470Z,7.97
2022-09-12T10:17:43.421Z,7.07
2022-09-12T10:20:31.093Z,7.38
2022-09-12T10:23:00.889Z,6.82
2022-09-12T10:25:28.847Z,6.95
2022-09-12T10:28:02.558Z,8.10
2022-09-12T10:30:30.153Z,6.75
2022-09-12T10:33:08.146Z,6.22
2022-09-12T10:35:48.630Z,7.03
2022-09-12T10:38:27.335Z,5.85
2022-09-12T10:41:07.395Z,6.43
2022-09-12T10:43:37.883Z,6.35
2022-09-12T10:46:29.354Z,6.05
2022-09-12T10:49:19.075Z,5.65
2022-09-12T10:51:46.398Z,5.95
2022-09-12T10:54:21.329Z,6.50
2022-09-12T10:57:10.327Z,5.50
2022-09-12T11:00:15.918Z,5.50
2022-09-12T11:03:34.530Z,5.20
2022-09-12T11:06:02.002Z,4.18
2022-09-12T11:08:51.608Z,5.25
2022-09-12T11:11:56.594Z,4.85
2022-09-12T11:14:39.422Z,3.80
2022-09-12T11:17:14.541Z,3.25
2022-09-12T11:19:41.833Z,3.97
2022-09-12T11:22:31.725Z,3.70
2022-09-12T11:25:27.864Z,4.35
2022-09-12T11:28:47.493Z,3.90
2022-09-12T11:31:23.871Z,4.30
2022-09-12T11:33:56.522Z,4.10
2022-09-12T11:36:36.949Z,4.10
2022-09-12T11:39:28.691Z,3.72
2022-09-12T11:42:00.641Z,4.15
2022-09-12T11:44:40.227Z,3.85
2022-09-12T11:47:12.432Z,3.90
2022-09-12T11:49:50.121Z,4.30
2022-09-12T11:52:29.275Z,4.85
2022-09-12T11:55:05.158Z,4.05
2022-09-12T11:58:01.846Z,4.13
2022-09-12T12:00:36.220Z,4.43
2022-09-12T12:03:11.955Z,3.63
2022-09-12T12:05:53.484Z,3.70
2022-09-12T12:08:27.684Z,4.20
2022-09-12T12:13:23.763Z,4.20
2022-09-12T12:16:05.015Z,3.47
2022-09-12T12:18:36.151Z,4.20
2022-09-12T12:21:28.525Z,4.30
2022-09-12T12:24:08.091Z,4.10
2022-09-12T12:26:41.551Z,4.00
2022-09-12T12:29:19.496Z,3.45
2022-09-12T12:31:59.321Z,2.97
2022-09-12T12:34:38.595Z,3.33
2022-09-12T12:37:29.673Z,3.65
2022-09-12T12:40:08.731Z,3.42
2022-09-12T12:42:36.129Z,3.00
2022-09-12T12:45:09.601Z,3.10
2022-09-12T12:47:44.411Z,3.28
2022-09-12T12:50:19.625Z,2.60
2022-09-12T12:52:55.659Z,2.90
2022-09-12T12:55:42.710Z,3.03
2022-09-12T12:58:24.246Z,2.55
2022-09-12T13:01:10.163Z,2.90
2022-09-12T13:03:40.897Z,2.53
2022-09-12T13:06:21.856Z,2.55
2022-09-12T13:09:00.195Z,2.50
2022-09-12T13:11:31.989Z,2.70
2022-09-12T13:14:03.131Z,2.70
2022-09-12T13:16:39.371Z,2.60
2022-09-12T13:19:19.271Z,2.75
2022-09-12T13:22:16.099Z,2.72
2022-09-12T13:24:57.061Z,2.30
2022-09-12T13:27:25.708Z,2.60
2022-09-12T13:30:13.654Z,2.40
2022-09-12T13:32:43.816Z,2.60
2022-09-12T13:35:34.220Z,2.47
2022-09-12T13:38:14.925Z,3.00
2022-09-12T13:41:14.038Z,2.90
2022-09-12T13:43:49.320Z,2.60
2022-09-12T13:46:26.361Z,2.90
2022-09-12T13:48:54.345Z,2.25
2022-09-12T13:51:26.125Z,3.20
2022-09-12T13:53:58.135Z,2.30
2022-09-12T13:56:26.009Z,2.60
2022-09-12T13:58:56.385Z,2.30
2022-09-12T14:01:36.885Z,2.67
2022-09-12T14:04:35.496Z,3.05
2022-09-12T14:07:14.792Z,2.63
2022-09-12T14:09:45.257Z,2.50
2022-09-12T14:12:34.005Z,2.53
2022-09-12T14:15:01.744Z,2.70
2022-09-12T14:17:36.104Z,2.28
2022-09-12T14:20:11.877Z,2.47
2022-09-12T14:22:41.492Z,2.50
2022-09-12T14:25:22.627Z,3.42
2022-09-12T14:27:57.166Z,2.50
2022-09-12T14:30:26.143Z,2.60
2022-09-12T14:33:03.697Z,2.50
2022-09-12T14:35:32.575Z,2.55
2022-09-12T14:38:08.793Z,2.05
2022-09-12T14:40:46.238Z,2.35
2022-09-12T14:43:32.493Z,2.40
2022-09-12T14:46:03.892Z,2.28
2022-09-12T14:48:43.389Z,2.25
2022-09-12T14:51:20.912Z,2.15
2022-09-12T14:53:49.864Z,2.70
2022-09-12T14:56:20.494Z,2.10
2022-09-12T14:58:48.928Z,2.00
2022-09-12T15:01:25.802Z,2.30
2022-09-12T15:03:55.831Z,2.15
2022-09-12T15:06:30.697Z,2.70
2022-09-12T15:09:02.257Z,2.50
2022-09-12T15:11:29.626Z,1.98
2022-09-12T15:13:57.180Z,2.25
2022-09-12T15:16:26.147Z,2.42
2022-09-12T15:18:53.874Z,2.17
2022-09-12T15:21:21.632Z,2.47
2022-09-12T15:23:53.953Z,2.25
2022-09-12T15:26:32.489Z,2.30
2022-09-12T15:29:15.477Z,2.50
2022-09-12T15:31:47.408Z,2.42
2022-09-12T15:34:15.577Z,2.20
2022-09-12T15:36:43.101Z,2.47
2022-09-12T15:39:12.102Z,2.80
2022-09-12T15:41:39.758Z,2.67
2022-09-12T15:44:10.937Z,2.13
2022-09-12T15:46:38.620Z,2.30
2022-09-12T15:49:09.313Z,2.20
2022-09-12T15:51:37.148Z,2.40
2022-09-12T15:54:04.942Z,2.40
2022-09-12T15:56:35.040Z,2.10
2022-09-12T15:59:02.668Z,2.25
2022-09-12T16:01:30.238Z,2.03
2022-09-12T16:04:03.282Z,2.40
2022-09-12T16:06:52.287Z,2.10
2022-09-12T16:09:21.668Z,2.30
2022-09-12T16:11:53.607Z,2.20
2022-09-12T16:14:23.824Z,2.10
2022-09-12T16:16:57.829Z,2.42
2022-09-12T16:21:53.178Z,2.53
2022-09-12T16:24:20.676Z,2.60
2022-09-12T16:26:48.223Z,2.55
2022-09-12T16:29:15.894Z,2.47
2022-09-12T16:31:43.471Z,2.67
2022-09-12T16:34:11.171Z,3.03
2022-09-12T16:36:38.598Z,3.05
2022-09-12T16:39:07.488Z,2.45
2022-09-12T16:41:34.952Z,2.60
2022-09-12T16:44:02.702Z,2.50
2022-09-12T16:46:30.316Z,2.30
2022-09-12T16:49:00.179Z,2.20
2022-09-12T16:51:35.951Z,2.42
2022-09-12T16:54:06.052Z,2.50
2022-09-12T16:56:33.635Z,2.80
2022-09-12T16:59:01.447Z,2.38
2022-09-12T17:01:29.209Z,2.05
2022-09-12T17:03:59.753Z,2.20
2022-09-12T17:06:28.314Z,2.17
2022-09-12T17:09:00.830Z,2.15
2022-09-12T17:11:32.077Z,2.25
2022-09-12T17:14:05.363Z,2.40
2022-09-12T17:16:39.173Z,2.83
2022-09-12T17:19:07.692Z,2.90
2022-09-12T17:21:35.555Z,2.00
2022-09-12T17:24:03.815Z,2.47
2022-09-12T17:26:31.628Z,2.58
2022-09-12T17:28:59.193Z,2.50
2022-09-12T17:31:29.150Z,2.17
2022-09-12T17:33:59.468Z,2.25
2022-09-12T17:36:28.605Z,2.15
2022-09-12T17:39:16.502Z,2.30
2022-09-12T17:41:45.744Z,2.30
2022-09-12T17:44:15.278Z,2.30
2022-09-12T17:46:43.671Z,2.30
2022-09-12T17:49:14.081Z,2.40
2022-09-12T17:51:43.515Z,2.55
2022-09-12T17:54:15.691Z,2.40
2022-09-12T17:56:47.438Z,3.17
2022-09-12T17:59:21.491Z,2.40
2022-09-12T18:02:09.087Z,2.33
2022-09-12T18:04:37.452Z,2.33
2022-09-12T18:07:06.100Z,2.60
2022-09-12T18:09:33.626Z,2.33
2022-09-12T18:12:01.407Z,2.50
2022-09-12T18:14:29.011Z,2.33
2022-09-12T18:17:00.127Z,2.22
2022-09-12T18:19:28.353Z,2.75
2022-09-12T18:21:56.775Z,2.30
2022-09-12T18:24:26.667Z,2.15
2022-09-12T18:26:56.761Z,2.55
2022-09-12T18:29:25.022Z,2.55
2022-09-12T18:31:52.627Z,2.60
2022-09-12T18:34:20.495Z,2.35
2022-09-12T18:36:49.575Z,2.50
2022-09-12T18:39:18.181Z,2.70
2022-09-12T18:41:45.564Z,2.70
2022-09-12T18:44:13.246Z,2.70
2022-09-12T18:46:40.756Z,2.70
2022-09-12T18:49:09.383Z,2.80
2022-09-12T18:51:39.965Z,3.20
2022-09-12T18:54:12.473Z,2.67
2022-09-12T18:56:43.390Z,2.83
2022-09-12T18:59:14.000Z,3.03
2022-09-12T19:01:41.867Z,3.00
2022-09-12T19:04:11.261Z,3.28
2022-09-12T19:06:41.495Z,2.78
2022-09-12T19:09:10.731Z,2.90
2022-09-12T19:11:40.799Z,2.97
2022-09-12T19:14:08.456Z,2.72
2022-09-12T19:16:35.929Z,2.95
2022-09-12T19:19:04.028Z,2.97
2022-09-12T19:21:32.926Z,3.10
2022-09-12T19:24:03.560Z,3.20
2022-09-12T19:26:31.843Z,3.00
2022-09-12T19:29:00.079Z,2.90
2022-09-12T19:31:27.710Z,3.03
2022-09-12T19:34:02.817Z,3.28
2022-09-12T19:36:47.267Z,3.38
2022-09-12T19:39:16.769Z,3.15
2022-09-12T19:41:44.774Z,3.40
2022-09-12T19:44:12.422Z,3.42
2022-09-12T19:46:40.531Z,3.33
2022-09-12T19:49:09.466Z,3.28
2022-09-12T19:51:36.943Z,3.80
2022-09-12T19:54:04.421Z,3.15
2022-09-12T19:56:31.840Z,3.80
2022-09-12T19:58:59.373Z,3.58
2022-09-12T20:01:28.502Z,3.38
2022-09-12T20:03:57.462Z,3.38
2022-09-12T20:06:25.428Z,3.70
2022-09-12T20:08:53.165Z,3.40
2022-09-12T20:11:23.378Z,3.55
2022-09-12T20:13:51.637Z,3.60
2022-09-12T20:16:25.533Z,3.60
2022-09-12T20:18:59.978Z,3.20
2022-09-12T20:24:01.865Z,3.22
2022-09-12T20:26:29.318Z,3.53
2022-09-12T20:28:56.915Z,3.50
2022-09-12T20:31:24.604Z,3.40
2022-09-12T20:33:52.308Z,3.70
2022-09-12T20:36:21.605Z,3.40
2022-09-12T20:38:54.249Z,3.58
2022-09-12T20:41:21.715Z,3.88
2022-09-12T20:43:54.072Z,3.85
2022-09-12T20:46:22.909Z,4.00
2022-09-12T20:48:51.219Z,3.45
2022-09-12T20:51:24.607Z,3.35
2022-09-12T20:53:55.836Z,3.60
2022-09-12T20:56:24.177Z,3.75
2022-09-12T20:58:51.749Z,3.47
2022-09-12T21:01:19.691Z,3.60
2022-09-12T21:03:47.276Z,3.90
2022-09-12T21:06:19.124Z,3.60
2022-09-12T21:08:48.460Z,3.50
2022-09-12T21:11:16.905Z,3.72
2022-09-12T21:13:44.595Z,3.50
2022-09-12T21:16:14.763Z,3.30
2022-09-12T21:18:42.798Z,3.70
2022-09-12T21:21:12.084Z,3.63
2022-09-12T21:23:39.862Z,3.78
2022-09-12T21:26:07.726Z,3.60
2022-09-12T21:28:35.473Z,3.47
2022-09-12T21:31:02.836Z,3.60
2022-09-12T21:33:30.238Z,3.80
2022-09-12T21:36:03.074Z,3.53
2022-09-12T21:38:31.022Z,4.13
2022-09-12T21:41:10.449Z,3.35
2022-09-12T21:43:39.172Z,3.88
2022-09-12T21:46:07.407Z,3.78
2022-09-12T21:48:35.078Z,3.72
2022-09-12T21:51:03.414Z,4.00
2022-09-12T21:53:31.163Z,4.00
2022-09-12T21:56:07.932Z,3.55
2022-09-12T21:58:36.019Z,3.47
2022-09-12T22:01:05.783Z,3.63
2022-09-12T22:03:33.380Z,3.83
2022-09-12T22:06:03.886Z,3.70
2022-09-12T22:08:33.578Z,3.92
2022-09-12T22:11:03.376Z,3.53
2022-09-12T22:13:32.172Z,3.78
2022-09-12T22:16:02.837Z,3.88
2022-09-12T22:18:33.197Z,3.70
2022-09-12T22:21:17.848Z,3.22
2022-09-12T22:26:34.971Z,3.78
2022-09-12T22:29:02.310Z,3.53
2022-09-12T22:31:29.684Z,3.47
2022-09-12T22:33:59.647Z,4.07
2022-09-12T22:36:30.923Z,3.83
2022-09-12T22:38:59.436Z,4.15
2022-09-12T22:41:26.740Z,3.88
2022-09-12T22:43:54.037Z,3.90
2022-09-12T22:46:21.418Z,3.40
2022-09-12T22:48:48.958Z,4.30
2022-09-12T22:51:16.642Z,3.85
2022-09-12T22:53:44.200Z,3.85
2022-09-12T22:56:11.555Z,3.83
2022-09-12T22:58:39.018Z,4.18
2022-09-12T23:01:07.285Z,3.72
2022-09-12T23:03:35.343Z,4.18
2022-09-12T23:06:03.724Z,3.60
2022-09-12T23:08:31.083Z,3.97
2022-09-12T23:11:16.388Z,3.95
2022-09-12T23:13:45.884Z,3.03
2022-09-12T23:16:22.577Z,3.90
2022-09-12T23:18:50.319Z,3.90
2022-09-12T23:21:20.106Z,3.65
2022-09-12T23:23:47.885Z,3.80
2022-09-12T23:26:18.314Z,3.63
2022-09-12T23:28:52.843Z,4.00
2022-09-12T23:31:24.219Z,4.40
2022-09-12T23:33:55.791Z,3.80
2022-09-12T23:36:24.346Z,4.40
2022-09-12T23:38:52.181Z,4.03
2022-09-12T23:41:19.928Z,4.63
2022-09-12T23:43:47.343Z,4.18
2022-09-12T23:46:16.305Z,4.20
2022-09-12T23:48:44.125Z,3.92
2022-09-12T23:51:11.863Z,4.60
2022-09-12T23:53:39.964Z,3.72
2022-09-12T23:56:07.628Z,4.93
2022-09-12T23:58:35.018Z,4.50
